RDN839 KADM-KDEN
Flight info
| Callsign | RDN839 |
|---|---|
| Flight time | 1h 27m |
| Altitude | 40000 |
| Route | MRMAC LBL HALEN NIIXX4 |
| Aircraft | B737/M-SDE2E3FGHIJ3J4J5J7M1M3P2RWXYZ/LB1D1 |
Departure
| Time | 2026-04-25 17:34 |
|---|---|
| Airport | Ardmore Municipal Airport (KADM) |
Arrival
| Time | 2026-04-25 19:01 |
|---|---|
| Airport | Denver International Airport (KDEN) |
| Time | Latitude | Longitude | Altitude | Speed | Heading |
|---|---|---|---|---|---|
| 2026-04-25 16:57 | 34.29838 | -97.02586 | 747 ft | 0 kts | 360° |
| 2026-04-25 17:26 | 34.29839 | -97.02586 | 747 ft | 1 kts | 360° |
| 2026-04-25 17:27 | 34.29855 | -97.02586 | 745 ft | 4 kts | 0° |
| 2026-04-25 17:27 | 34.29892 | -97.02574 | 746 ft | 7 kts | 34° |
| 2026-04-25 17:27 | 34.29940 | -97.02540 | 746 ft | 8 kts | 12° |
| 2026-04-25 17:27 | 34.29978 | -97.02538 | 744 ft | 8 kts | 1° |
| 2026-04-25 17:28 | 34.30057 | -97.02536 | 747 ft | 10 kts | 0° |
| 2026-04-25 17:28 | 34.30135 | -97.02535 | 745 ft | 12 kts | 0° |
| 2026-04-25 17:28 | 34.30230 | -97.02534 | 745 ft | 15 kts | 0° |
| 2026-04-25 17:28 | 34.30340 | -97.02533 | 747 ft | 17 kts | 0° |
| 2026-04-25 17:29 | 34.30463 | -97.02533 | 744 ft | 19 kts | 360° |
| 2026-04-25 17:29 | 34.30596 | -97.02532 | 746 ft | 19 kts | 0° |
| 2026-04-25 17:29 | 34.30724 | -97.02531 | 745 ft | 18 kts | 0° |
| 2026-04-25 17:29 | 34.30848 | -97.02530 | 745 ft | 17 kts | 0° |
| 2026-04-25 17:30 | 34.30953 | -97.02529 | 744 ft | 10 kts | 1° |
| 2026-04-25 17:30 | 34.31009 | -97.02560 | 747 ft | 9 kts | 316° |
| 2026-04-25 17:30 | 34.31058 | -97.02618 | 746 ft | 11 kts | 316° |
| 2026-04-25 17:30 | 34.31115 | -97.02686 | 747 ft | 12 kts | 315° |
| 2026-04-25 17:31 | 34.31179 | -97.02761 | 747 ft | 13 kts | 315° |
| 2026-04-25 17:31 | 34.31247 | -97.02843 | 745 ft | 14 kts | 315° |
| 2026-04-25 17:31 | 34.31314 | -97.02923 | 747 ft | 13 kts | 315° |
| 2026-04-25 17:31 | 34.31373 | -97.02993 | 747 ft | 9 kts | 315° |
| 2026-04-25 17:32 | 34.31409 | -97.02992 | 745 ft | 4 kts | 46° |
| 2026-04-25 17:32 | 34.31427 | -97.02970 | 745 ft | 3 kts | 46° |
| 2026-04-25 17:32 | 34.31447 | -97.02945 | 744 ft | 5 kts | 46° |
| 2026-04-25 17:32 | 34.31450 | -97.02903 | 747 ft | 6 kts | 108° |
| 2026-04-25 17:33 | 34.31413 | -97.02852 | 744 ft | 14 kts | 134° |
| 2026-04-25 17:33 | 34.31165 | -97.02557 | 745 ft | 88 kts | 135° |
| 2026-04-25 17:33 | 34.30569 | -97.01839 | 767 ft | 148 kts | 134° |
| 2026-04-25 17:33 | 34.29800 | -97.00907 | 1320 ft | 159 kts | 134° |
| 2026-04-25 17:34 | 34.29045 | -96.99988 | 2293 ft | 150 kts | 140° |
| 2026-04-25 17:34 | 34.28333 | -96.99064 | 3057 ft | 153 kts | 141° |
| 2026-04-25 17:34 | 34.27598 | -96.98083 | 3561 ft | 169 kts | 140° |
| 2026-04-25 17:34 | 34.26703 | -96.96934 | 3786 ft | 204 kts | 140° |
| 2026-04-25 17:35 | 34.25621 | -96.95647 | 4117 ft | 227 kts | 150° |
| 2026-04-25 17:35 | 34.24215 | -96.94818 | 4865 ft | 231 kts | 163° |
| 2026-04-25 17:35 | 34.22591 | -96.94435 | 5289 ft | 244 kts | 190° |
| 2026-04-25 17:35 | 34.21015 | -96.95143 | 6129 ft | 244 kts | 219° |
| 2026-04-25 17:36 | 34.19976 | -96.96722 | 7100 ft | 243 kts | 245° |
| 2026-04-25 17:36 | 34.19436 | -96.98687 | 7981 ft | 251 kts | 258° |
| 2026-04-25 17:36 | 34.19505 | -97.00831 | 8832 ft | 264 kts | 281° |
| 2026-04-25 17:36 | 34.20258 | -97.02896 | 9750 ft | 275 kts | 299° |
| 2026-04-25 17:37 | 34.21350 | -97.04826 | 10562 ft | 285 kts | 302° |
| 2026-04-25 17:37 | 34.22573 | -97.06854 | 10934 ft | 310 kts | 303° |
| 2026-04-25 17:37 | 34.23873 | -97.08975 | 11720 ft | 317 kts | 303° |
| 2026-04-25 17:37 | 34.25187 | -97.11118 | 12704 ft | 318 kts | 303° |
| 2026-04-25 17:38 | 34.26504 | -97.13279 | 13721 ft | 320 kts | 303° |
| 2026-04-25 17:38 | 34.27379 | -97.14722 | 14310 ft | 323 kts | 303° |
| 2026-04-25 17:38 | 34.29173 | -97.17698 | 15484 ft | 330 kts | 303° |
| 2026-04-25 17:38 | 34.30526 | -97.19952 | 16430 ft | 333 kts | 303° |
| 2026-04-25 17:39 | 34.31892 | -97.22236 | 17351 ft | 337 kts | 303° |
| 2026-04-25 17:39 | 34.33274 | -97.24550 | 18232 ft | 342 kts | 303° |
| 2026-04-25 17:39 | 34.34671 | -97.26894 | 19046 ft | 345 kts | 303° |
| 2026-04-25 17:39 | 34.36078 | -97.29255 | 19929 ft | 346 kts | 302° |
| 2026-04-25 17:40 | 34.37488 | -97.31625 | 20801 ft | 348 kts | 302° |
| 2026-04-25 17:40 | 34.38909 | -97.34014 | 21628 ft | 351 kts | 302° |
| 2026-04-25 17:40 | 34.40342 | -97.36427 | 22435 ft | 354 kts | 302° |
| 2026-04-25 17:40 | 34.41763 | -97.38822 | 23231 ft | 357 kts | 301° |
| 2026-04-25 17:41 | 34.43215 | -97.41271 | 23911 ft | 360 kts | 301° |
| 2026-04-25 17:41 | 34.44682 | -97.43744 | 24613 ft | 361 kts | 301° |
| 2026-04-25 17:41 | 34.46148 | -97.46219 | 25342 ft | 362 kts | 301° |
| 2026-04-25 17:41 | 34.47619 | -97.48704 | 26018 ft | 364 kts | 301° |
| 2026-04-25 17:42 | 34.49099 | -97.51206 | 26647 ft | 366 kts | 301° |
| 2026-04-25 17:42 | 34.50588 | -97.53724 | 27321 ft | 368 kts | 301° |
| 2026-04-25 17:42 | 34.52080 | -97.56250 | 28002 ft | 369 kts | 301° |
| 2026-04-25 17:42 | 34.53578 | -97.58787 | 28649 ft | 371 kts | 301° |
| 2026-04-25 17:43 | 34.55082 | -97.61336 | 29257 ft | 373 kts | 301° |
| 2026-04-25 17:43 | 34.56592 | -97.63900 | 29829 ft | 374 kts | 301° |
| 2026-04-25 17:43 | 34.58109 | -97.66476 | 30281 ft | 376 kts | 301° |
| 2026-04-25 17:43 | 34.59634 | -97.69067 | 30725 ft | 378 kts | 301° |
| 2026-04-25 17:44 | 34.61165 | -97.71668 | 31178 ft | 379 kts | 300° |
| 2026-04-25 17:44 | 34.62696 | -97.74274 | 31610 ft | 380 kts | 300° |
| 2026-04-25 17:44 | 34.64232 | -97.76887 | 32006 ft | 381 kts | 300° |
| 2026-04-25 17:44 | 34.65772 | -97.79512 | 32386 ft | 382 kts | 300° |
| 2026-04-25 17:45 | 34.67317 | -97.82147 | 32751 ft | 384 kts | 300° |
| 2026-04-25 17:45 | 34.67819 | -97.83004 | 32859 ft | 384 kts | 300° |
| 2026-04-25 17:45 | 34.70421 | -97.87446 | 33421 ft | 386 kts | 300° |
| 2026-04-25 17:45 | 34.71980 | -97.90110 | 33724 ft | 387 kts | 300° |
| 2026-04-25 17:46 | 34.73540 | -97.92778 | 34010 ft | 388 kts | 300° |
| 2026-04-25 17:46 | 34.75104 | -97.95455 | 34229 ft | 389 kts | 300° |
| 2026-04-25 17:46 | 34.76670 | -97.98138 | 34484 ft | 389 kts | 300° |
| 2026-04-25 17:46 | 34.78233 | -98.00816 | 34769 ft | 388 kts | 300° |
| 2026-04-25 17:47 | 34.79789 | -98.03484 | 35060 ft | 387 kts | 300° |
| 2026-04-25 17:47 | 34.81344 | -98.06154 | 35304 ft | 386 kts | 300° |
| 2026-04-25 17:47 | 34.82896 | -98.08820 | 35556 ft | 386 kts | 300° |
| 2026-04-25 17:47 | 34.84517 | -98.11433 | 35814 ft | 388 kts | 304° |
| 2026-04-25 17:48 | 34.88277 | -98.16201 | 36318 ft | 390 kts | 308° |
| 2026-04-25 17:48 | 34.90185 | -98.18555 | 36548 ft | 390 kts | 308° |
| 2026-04-25 17:48 | 34.92088 | -98.20904 | 36796 ft | 389 kts | 308° |
| 2026-04-25 17:49 | 34.93988 | -98.23257 | 37046 ft | 389 kts | 307° |
| 2026-04-25 17:49 | 34.95880 | -98.25609 | 37274 ft | 388 kts | 307° |
| 2026-04-25 17:49 | 34.97768 | -98.27962 | 37521 ft | 388 kts | 307° |
| 2026-04-25 17:49 | 34.99628 | -98.30286 | 37724 ft | 388 kts | 307° |
| 2026-04-25 17:50 | 35.01506 | -98.32637 | 37939 ft | 387 kts | 307° |
| 2026-04-25 17:50 | 35.03384 | -98.34988 | 38150 ft | 386 kts | 307° |
| 2026-04-25 17:50 | 35.05254 | -98.37333 | 38392 ft | 385 kts | 307° |
| 2026-04-25 17:50 | 35.07121 | -98.39675 | 38562 ft | 385 kts | 307° |
| 2026-04-25 17:51 | 35.08989 | -98.42023 | 38663 ft | 386 kts | 307° |
| 2026-04-25 17:51 | 35.10863 | -98.44379 | 38780 ft | 387 kts | 307° |
| 2026-04-25 17:51 | 35.12739 | -98.46739 | 38926 ft | 387 kts | 307° |
| 2026-04-25 17:51 | 35.14614 | -98.49098 | 39047 ft | 387 kts | 307° |
| 2026-04-25 17:52 | 35.16492 | -98.51463 | 39164 ft | 388 kts | 307° |
| 2026-04-25 17:52 | 35.20252 | -98.56203 | 39454 ft | 389 kts | 307° |
| 2026-04-25 17:53 | 35.24040 | -98.60988 | 39610 ft | 392 kts | 307° |
| 2026-04-25 17:53 | 35.25937 | -98.63385 | 39736 ft | 393 kts | 307° |
| 2026-04-25 17:53 | 35.27842 | -98.65794 | 39773 ft | 395 kts | 307° |
| 2026-04-25 17:54 | 35.31657 | -98.70622 | 39782 ft | 393 kts | 307° |
| 2026-04-25 17:54 | 35.35443 | -98.75418 | 39791 ft | 391 kts | 307° |
| 2026-04-25 17:55 | 35.39213 | -98.80205 | 39810 ft | 390 kts | 307° |
| 2026-04-25 17:55 | 35.42978 | -98.84993 | 39843 ft | 390 kts | 307° |
| 2026-04-25 17:56 | 35.46749 | -98.89797 | 39817 ft | 392 kts | 307° |
| 2026-04-25 17:56 | 35.50533 | -98.94624 | 39796 ft | 393 kts | 307° |
| 2026-04-25 17:57 | 35.54327 | -98.99469 | 39779 ft | 394 kts | 307° |
| 2026-04-25 17:57 | 35.58123 | -99.04323 | 39780 ft | 394 kts | 307° |
| 2026-04-25 17:58 | 35.61922 | -99.09188 | 39765 ft | 395 kts | 307° |
| 2026-04-25 17:58 | 35.65699 | -99.14032 | 39763 ft | 395 kts | 307° |
| 2026-04-25 17:59 | 35.69497 | -99.18911 | 39759 ft | 395 kts | 307° |
| 2026-04-25 17:59 | 35.73295 | -99.23796 | 39757 ft | 395 kts | 307° |
| 2026-04-25 18:00 | 35.76451 | -99.27862 | 39756 ft | 395 kts | 307° |
| 2026-04-25 18:00 | 35.80890 | -99.33589 | 39760 ft | 396 kts | 307° |
| 2026-04-25 18:01 | 35.84691 | -99.38501 | 39757 ft | 396 kts | 307° |
| 2026-04-25 18:01 | 35.88494 | -99.43422 | 39788 ft | 396 kts | 307° |
| 2026-04-25 18:02 | 35.92301 | -99.48357 | 39751 ft | 397 kts | 307° |
| 2026-04-25 18:02 | 35.95464 | -99.52460 | 39759 ft | 397 kts | 307° |
| 2026-04-25 18:03 | 35.99268 | -99.57404 | 39761 ft | 397 kts | 307° |
| 2026-04-25 18:03 | 36.03069 | -99.62351 | 39766 ft | 397 kts | 307° |
| 2026-04-25 18:04 | 36.06868 | -99.67303 | 39786 ft | 397 kts | 307° |
| 2026-04-25 18:04 | 36.10664 | -99.72258 | 39840 ft | 397 kts | 307° |
| 2026-04-25 18:05 | 36.13851 | -99.76425 | 39815 ft | 399 kts | 307° |
| 2026-04-25 18:05 | 36.18282 | -99.82226 | 39819 ft | 399 kts | 307° |
| 2026-04-25 18:06 | 36.22098 | -99.87230 | 39817 ft | 399 kts | 307° |
| 2026-04-25 18:06 | 36.25910 | -99.92235 | 39812 ft | 399 kts | 307° |
| 2026-04-25 18:07 | 36.29718 | -99.97245 | 39808 ft | 399 kts | 307° |
| 2026-04-25 18:07 | 36.33521 | -100.02254 | 39819 ft | 399 kts | 307° |
| 2026-04-25 18:08 | 36.37331 | -100.07282 | 39783 ft | 400 kts | 307° |
| 2026-04-25 18:08 | 36.41146 | -100.12323 | 39766 ft | 401 kts | 307° |
| 2026-04-25 18:09 | 36.44965 | -100.17378 | 39749 ft | 401 kts | 307° |
| 2026-04-25 18:09 | 36.48785 | -100.22441 | 39741 ft | 402 kts | 307° |
| 2026-04-25 18:10 | 36.52602 | -100.27508 | 39742 ft | 401 kts | 307° |
| 2026-04-25 18:10 | 36.56415 | -100.32576 | 39764 ft | 402 kts | 307° |
| 2026-04-25 18:11 | 36.60239 | -100.37669 | 39760 ft | 403 kts | 307° |
| 2026-04-25 18:11 | 36.64062 | -100.42769 | 39762 ft | 403 kts | 307° |
| 2026-04-25 18:12 | 36.67884 | -100.47874 | 39770 ft | 403 kts | 307° |
| 2026-04-25 18:12 | 36.71679 | -100.52951 | 39766 ft | 403 kts | 306° |
| 2026-04-25 18:13 | 36.75496 | -100.58066 | 39778 ft | 403 kts | 306° |
| 2026-04-25 18:13 | 36.79314 | -100.63190 | 39784 ft | 403 kts | 306° |
| 2026-04-25 18:14 | 36.85042 | -100.70894 | 39812 ft | 404 kts | 306° |
| 2026-04-25 18:14 | 36.88861 | -100.76039 | 39835 ft | 404 kts | 306° |
| 2026-04-25 18:15 | 36.92677 | -100.81190 | 39859 ft | 404 kts | 306° |
| 2026-04-25 18:15 | 36.96489 | -100.86343 | 39880 ft | 404 kts | 306° |
| 2026-04-25 18:16 | 37.00304 | -100.91510 | 39893 ft | 405 kts | 306° |
| 2026-04-25 18:17 | 37.06003 | -100.99300 | 39887 ft | 404 kts | 305° |
| 2026-04-25 18:17 | 37.09668 | -101.04624 | 39890 ft | 403 kts | 304° |
| 2026-04-25 18:18 | 37.13306 | -101.09967 | 39874 ft | 403 kts | 304° |
| 2026-04-25 18:18 | 37.16956 | -101.15310 | 39852 ft | 403 kts | 304° |
| 2026-04-25 18:19 | 37.20610 | -101.20651 | 39847 ft | 404 kts | 304° |
| 2026-04-25 18:19 | 37.24267 | -101.25999 | 39891 ft | 404 kts | 304° |
| 2026-04-25 18:20 | 37.27925 | -101.31355 | 39827 ft | 404 kts | 304° |
| 2026-04-25 18:20 | 37.31554 | -101.36678 | 39833 ft | 404 kts | 304° |
| 2026-04-25 18:21 | 37.35203 | -101.42038 | 39844 ft | 404 kts | 304° |
| 2026-04-25 18:21 | 37.38849 | -101.47404 | 39860 ft | 403 kts | 304° |
| 2026-04-25 18:22 | 37.42493 | -101.52777 | 39866 ft | 404 kts | 304° |
| 2026-04-25 18:22 | 37.46137 | -101.58156 | 39885 ft | 404 kts | 304° |
| 2026-04-25 18:23 | 37.49781 | -101.63544 | 39905 ft | 404 kts | 304° |
| 2026-04-25 18:23 | 37.53419 | -101.68934 | 39915 ft | 404 kts | 304° |
| 2026-04-25 18:24 | 37.57052 | -101.74324 | 39915 ft | 403 kts | 304° |
| 2026-04-25 18:24 | 37.60679 | -101.79714 | 39944 ft | 403 kts | 304° |
| 2026-04-25 18:25 | 37.64310 | -101.85122 | 39916 ft | 404 kts | 304° |
| 2026-04-25 18:25 | 37.67945 | -101.90542 | 39892 ft | 404 kts | 304° |
| 2026-04-25 18:26 | 37.71577 | -101.95967 | 39876 ft | 405 kts | 304° |
| 2026-04-25 18:26 | 37.75207 | -102.01400 | 39861 ft | 405 kts | 304° |
| 2026-04-25 18:27 | 37.78840 | -102.06845 | 39841 ft | 404 kts | 304° |
| 2026-04-25 18:27 | 37.82459 | -102.12275 | 39833 ft | 404 kts | 304° |
| 2026-04-25 18:28 | 37.86187 | -102.17549 | 39840 ft | 406 kts | 307° |
| 2026-04-25 18:28 | 37.90070 | -102.22731 | 39837 ft | 406 kts | 307° |
| 2026-04-25 18:29 | 37.95877 | -102.30534 | 39841 ft | 405 kts | 306° |
| 2026-04-25 18:30 | 38.03569 | -102.40988 | 39906 ft | 406 kts | 306° |
| 2026-04-25 18:30 | 38.07416 | -102.46232 | 39913 ft | 406 kts | 306° |
| 2026-04-25 18:31 | 38.11260 | -102.51479 | 39922 ft | 406 kts | 306° |
| 2026-04-25 18:31 | 38.15100 | -102.56731 | 39932 ft | 406 kts | 306° |
| 2026-04-25 18:32 | 38.18937 | -102.61986 | 39931 ft | 405 kts | 306° |
| 2026-04-25 18:32 | 38.22771 | -102.67245 | 39927 ft | 406 kts | 306° |
| 2026-04-25 18:33 | 38.26608 | -102.72516 | 39908 ft | 406 kts | 306° |
| 2026-04-25 18:33 | 38.30445 | -102.77796 | 39885 ft | 406 kts | 306° |
| 2026-04-25 18:34 | 38.34278 | -102.83081 | 39864 ft | 406 kts | 306° |
| 2026-04-25 18:34 | 38.38109 | -102.88371 | 39841 ft | 406 kts | 306° |
| 2026-04-25 18:35 | 38.41913 | -102.93634 | 39850 ft | 407 kts | 306° |
| 2026-04-25 18:35 | 38.45747 | -102.98947 | 39841 ft | 407 kts | 306° |
| 2026-04-25 18:36 | 38.49584 | -103.04274 | 39833 ft | 407 kts | 306° |
| 2026-04-25 18:36 | 38.53418 | -103.09603 | 39837 ft | 407 kts | 306° |
| 2026-04-25 18:37 | 38.57250 | -103.14941 | 39838 ft | 407 kts | 306° |
| 2026-04-25 18:37 | 38.61079 | -103.20282 | 39863 ft | 408 kts | 306° |
| 2026-04-25 18:38 | 38.64908 | -103.25635 | 39851 ft | 408 kts | 306° |
| 2026-04-25 18:38 | 38.66835 | -103.28333 | 39409 ft | 409 kts | 306° |
| 2026-04-25 18:38 | 38.68745 | -103.31005 | 38738 ft | 408 kts | 306° |
| 2026-04-25 18:39 | 38.70660 | -103.33689 | 38023 ft | 406 kts | 306° |
| 2026-04-25 18:39 | 38.72555 | -103.36346 | 37229 ft | 404 kts | 306° |
| 2026-04-25 18:39 | 38.74455 | -103.39016 | 36415 ft | 404 kts | 306° |
| 2026-04-25 18:39 | 38.76340 | -103.41665 | 35659 ft | 402 kts | 306° |
| 2026-04-25 18:40 | 38.78226 | -103.44318 | 34801 ft | 402 kts | 306° |
| 2026-04-25 18:40 | 38.80103 | -103.46960 | 34025 ft | 401 kts | 306° |
| 2026-04-25 18:40 | 38.81988 | -103.49618 | 33097 ft | 402 kts | 306° |
| 2026-04-25 18:40 | 38.83855 | -103.52251 | 32413 ft | 397 kts | 306° |
| 2026-04-25 18:41 | 38.85696 | -103.54852 | 31792 ft | 391 kts | 306° |
| 2026-04-25 18:41 | 38.87517 | -103.57428 | 31162 ft | 387 kts | 306° |
| 2026-04-25 18:41 | 38.89313 | -103.59973 | 30530 ft | 383 kts | 306° |
| 2026-04-25 18:41 | 38.91093 | -103.62499 | 29909 ft | 380 kts | 306° |
| 2026-04-25 18:42 | 38.92857 | -103.65003 | 29209 ft | 376 kts | 306° |
| 2026-04-25 18:42 | 38.93425 | -103.65809 | 29003 ft | 375 kts | 306° |
| 2026-04-25 18:42 | 38.96322 | -103.69927 | 27958 ft | 367 kts | 306° |
| 2026-04-25 18:42 | 38.98028 | -103.72354 | 27324 ft | 364 kts | 306° |
| 2026-04-25 18:43 | 38.99718 | -103.74761 | 26730 ft | 362 kts | 306° |
| 2026-04-25 18:43 | 39.01400 | -103.77157 | 26099 ft | 360 kts | 307° |
| 2026-04-25 18:43 | 39.03074 | -103.79545 | 25492 ft | 359 kts | 307° |
| 2026-04-25 18:43 | 39.04719 | -103.81892 | 24893 ft | 358 kts | 307° |
| 2026-04-25 18:44 | 39.06382 | -103.84267 | 24279 ft | 357 kts | 307° |
| 2026-04-25 18:44 | 39.08044 | -103.86642 | 23645 ft | 357 kts | 307° |
| 2026-04-25 18:44 | 39.09707 | -103.89021 | 22954 ft | 358 kts | 307° |
| 2026-04-25 18:44 | 39.11367 | -103.91397 | 22301 ft | 356 kts | 307° |
| 2026-04-25 18:45 | 39.13018 | -103.93762 | 21738 ft | 353 kts | 308° |
| 2026-04-25 18:45 | 39.14644 | -103.96113 | 21332 ft | 351 kts | 307° |
| 2026-04-25 18:45 | 39.16268 | -103.98473 | 20920 ft | 354 kts | 308° |
| 2026-04-25 18:45 | 39.17909 | -104.00862 | 20504 ft | 358 kts | 308° |
| 2026-04-25 18:46 | 39.19567 | -104.03277 | 20102 ft | 361 kts | 308° |
| 2026-04-25 18:46 | 39.21231 | -104.05698 | 19671 ft | 361 kts | 308° |
| 2026-04-25 18:46 | 39.22893 | -104.08118 | 19230 ft | 360 kts | 308° |
| 2026-04-25 18:46 | 39.24553 | -104.10536 | 18810 ft | 360 kts | 309° |
| 2026-04-25 18:47 | 39.26215 | -104.12959 | 18400 ft | 360 kts | 309° |
| 2026-04-25 18:47 | 39.27871 | -104.15374 | 17934 ft | 357 kts | 309° |
| 2026-04-25 18:47 | 39.29462 | -104.17783 | 17463 ft | 348 kts | 303° |
| 2026-04-25 18:47 | 39.30493 | -104.20539 | 17081 ft | 336 kts | 285° |
| 2026-04-25 18:48 | 39.31025 | -104.23431 | 16689 ft | 328 kts | 280° |
| 2026-04-25 18:48 | 39.31457 | -104.26295 | 16288 ft | 321 kts | 279° |
| 2026-04-25 18:48 | 39.31869 | -104.29102 | 15912 ft | 316 kts | 279° |
| 2026-04-25 18:48 | 39.32284 | -104.31863 | 15547 ft | 310 kts | 280° |
| 2026-04-25 18:49 | 39.32701 | -104.34570 | 15191 ft | 305 kts | 280° |
| 2026-04-25 18:49 | 39.33113 | -104.37196 | 14826 ft | 300 kts | 280° |
| 2026-04-25 18:49 | 39.33533 | -104.39850 | 14478 ft | 296 kts | 280° |
| 2026-04-25 18:49 | 39.33943 | -104.42436 | 14135 ft | 292 kts | 280° |
| 2026-04-25 18:50 | 39.34340 | -104.44954 | 13807 ft | 288 kts | 280° |
| 2026-04-25 18:50 | 39.34609 | -104.46663 | 13575 ft | 286 kts | 280° |
| 2026-04-25 18:50 | 39.35002 | -104.49168 | 13213 ft | 283 kts | 280° |
| 2026-04-25 18:50 | 39.35389 | -104.51640 | 12850 ft | 279 kts | 280° |
| 2026-04-25 18:51 | 39.35770 | -104.54075 | 12528 ft | 275 kts | 280° |
| 2026-04-25 18:51 | 39.36019 | -104.55668 | 12318 ft | 272 kts | 280° |
| 2026-04-25 18:51 | 39.36542 | -104.58839 | 11957 ft | 266 kts | 286° |
| 2026-04-25 18:51 | 39.37353 | -104.60930 | 11932 ft | 255 kts | 300° |
| 2026-04-25 18:52 | 39.38267 | -104.62828 | 11941 ft | 245 kts | 301° |
| 2026-04-25 18:52 | 39.39464 | -104.64379 | 11960 ft | 246 kts | 324° |
| 2026-04-25 18:52 | 39.40959 | -104.65473 | 11949 ft | 249 kts | 329° |
| 2026-04-25 18:52 | 39.42535 | -104.66414 | 11936 ft | 252 kts | 343° |
| 2026-04-25 18:53 | 39.44292 | -104.66569 | 11973 ft | 255 kts | 358° |
| 2026-04-25 18:53 | 39.46050 | -104.66513 | 11968 ft | 257 kts | 358° |
| 2026-04-25 18:53 | 39.47859 | -104.66464 | 11970 ft | 257 kts | 358° |
| 2026-04-25 18:53 | 39.49630 | -104.66432 | 11852 ft | 261 kts | 358° |
| 2026-04-25 18:54 | 39.53290 | -104.66387 | 11168 ft | 259 kts | 358° |
| 2026-04-25 18:54 | 39.55066 | -104.66366 | 10841 ft | 252 kts | 358° |
| 2026-04-25 18:54 | 39.56797 | -104.66346 | 10502 ft | 243 kts | 358° |
| 2026-04-25 18:55 | 39.58438 | -104.66327 | 10192 ft | 230 kts | 358° |
| 2026-04-25 18:55 | 39.60024 | -104.66309 | 9920 ft | 226 kts | 358° |
| 2026-04-25 18:55 | 39.61597 | -104.66293 | 9625 ft | 226 kts | 359° |
| 2026-04-25 18:55 | 39.63179 | -104.66276 | 9316 ft | 228 kts | 359° |
| 2026-04-25 18:56 | 39.64758 | -104.66257 | 8990 ft | 225 kts | 359° |
| 2026-04-25 18:56 | 39.66275 | -104.66240 | 8702 ft | 211 kts | 360° |
| 2026-04-25 18:56 | 39.67698 | -104.66224 | 8429 ft | 199 kts | 0° |
| 2026-04-25 18:56 | 39.69080 | -104.66209 | 8150 ft | 198 kts | 0° |
| 2026-04-25 18:57 | 39.70446 | -104.66193 | 7877 ft | 195 kts | 1° |
| 2026-04-25 18:57 | 39.71789 | -104.66178 | 7620 ft | 188 kts | 1° |
| 2026-04-25 18:57 | 39.73052 | -104.66164 | 7373 ft | 175 kts | 2° |
| 2026-04-25 18:57 | 39.73843 | -104.66155 | 7227 ft | 169 kts | 2° |
| 2026-04-25 18:58 | 39.75344 | -104.66139 | 6950 ft | 154 kts | 3° |
| 2026-04-25 18:58 | 39.77321 | -104.66116 | 6608 ft | 139 kts | 4° |
| 2026-04-25 18:58 | 39.78281 | -104.66105 | 6403 ft | 137 kts | 5° |
| 2026-04-25 18:59 | 39.80191 | -104.66083 | 5979 ft | 139 kts | 4° |
| 2026-04-25 18:59 | 39.82166 | -104.66066 | 5548 ft | 144 kts | 3° |
| 2026-04-25 19:00 | 39.84069 | -104.66037 | 5364 ft | 113 kts | 2° |
| 2026-04-25 19:00 | 39.84706 | -104.66028 | 5362 ft | 70 kts | 0° |
| 2026-04-25 19:01 | 39.85236 | -104.66111 | 5364 ft | 21 kts | 332° |
| 2026-04-25 19:01 | 39.85294 | -104.66188 | 5363 ft | 7 kts | 274° |
| 2026-04-25 19:01 | 39.85271 | -104.66231 | 5364 ft | 5 kts | 205° |
| 2026-04-25 19:01 | 39.85236 | -104.66235 | 5363 ft | 5 kts | 181° |
| 2026-04-25 19:02 | 39.85165 | -104.66236 | 5365 ft | 8 kts | 181° |
| 2026-04-25 19:02 | 39.85109 | -104.66237 | 5363 ft | 8 kts | 181° |
| 2026-04-25 19:02 | 39.85055 | -104.66238 | 5364 ft | 8 kts | 181° |
| 2026-04-25 19:03 | 39.84957 | -104.66242 | 5363 ft | 8 kts | 182° |
| 2026-04-25 19:03 | 39.84879 | -104.66243 | 5363 ft | 9 kts | 180° |
| 2026-04-25 19:03 | 39.84800 | -104.66243 | 5364 ft | 15 kts | 179° |
| 2026-04-25 19:04 | 39.84569 | -104.66244 | 5363 ft | 16 kts | 180° |
| 2026-04-25 19:04 | 39.84458 | -104.66246 | 5364 ft | 16 kts | 181° |
| 2026-04-25 19:05 | 39.84244 | -104.66250 | 5363 ft | 16 kts | 181° |
| 2026-04-25 19:05 | 39.84028 | -104.66264 | 5364 ft | 11 kts | 217° |
| 2026-04-25 19:05 | 39.84003 | -104.66344 | 5364 ft | 7 kts | 232° |
| 2026-04-25 19:06 | 39.83965 | -104.66372 | 5364 ft | 5 kts | 208° |
| 2026-04-25 19:06 | 39.83953 | -104.66436 | 5365 ft | 4 kts | 272° |
| 2026-04-25 19:06 | 39.83954 | -104.66476 | 5365 ft | 5 kts | 271° |
| 2026-04-25 19:07 | 39.83946 | -104.66497 | 5364 ft | 0 kts | 214° |
| 2026-04-25 19:07 | 39.83932 | -104.66501 | 5363 ft | 3 kts | 181° |
| 2026-04-25 19:08 | 39.83931 | -104.66501 | 5364 ft | 0 kts | 181° |